createdAt,value
2022-07-31T00:01:20.449Z,19.44
2022-07-31T00:06:23.440Z,19.32
2022-07-31T00:11:26.477Z,19.28
2022-07-31T00:16:29.291Z,19.29
2022-07-31T00:21:32.387Z,19.37
2022-07-31T00:32:46.401Z,19.51
2022-07-31T00:38:12.367Z,19.56
2022-07-31T00:43:21.595Z,19.56
2022-07-31T00:48:25.107Z,19.54
2022-07-31T00:53:28.151Z,19.46
2022-07-31T00:58:30.911Z,19.47
2022-07-31T01:03:33.699Z,19.46
2022-07-31T01:08:40.291Z,19.45
2022-07-31T01:13:52.145Z,19.42
2022-07-31T01:18:57.726Z,19.42
2022-07-31T01:24:52.657Z,19.42
2022-07-31T01:29:59.315Z,19.42
2022-07-31T01:35:11.831Z,19.43
2022-07-31T01:40:38.264Z,19.43
2022-07-31T01:45:45.651Z,19.44
2022-07-31T01:50:54.968Z,19.44
2022-07-31T01:56:03.378Z,19.45
2022-07-31T02:01:11.548Z,19.48
2022-07-31T02:06:18.526Z,19.54
2022-07-31T02:11:22.479Z,19.55
2022-07-31T02:16:27.124Z,19.54
2022-07-31T02:21:30.216Z,19.55
2022-07-31T02:26:36.515Z,19.52
2022-07-31T02:31:41.879Z,19.57
2022-07-31T02:36:47.511Z,19.59
2022-07-31T02:41:52.400Z,19.57
2022-07-31T02:46:59.616Z,19.55
2022-07-31T02:52:05.419Z,19.56
2022-07-31T02:57:09.394Z,19.62
2022-07-31T03:02:12.372Z,19.67
2022-07-31T03:07:17.678Z,19.65
2022-07-31T03:12:21.665Z,19.65
2022-07-31T03:17:25.041Z,19.70
2022-07-31T03:22:42.649Z,19.76
2022-07-31T03:27:55.513Z,19.70
2022-07-31T03:33:03.020Z,19.66
2022-07-31T03:38:40.485Z,19.63
2022-07-31T03:43:47.212Z,19.64
2022-07-31T03:48:52.937Z,19.66
2022-07-31T03:53:56.692Z,19.66
2022-07-31T03:58:59.958Z,19.63
2022-07-31T04:04:04.879Z,19.64
2022-07-31T04:09:18.566Z,19.65
2022-07-31T04:14:22.181Z,19.69
2022-07-31T04:19:25.088Z,19.70
2022-07-31T04:24:28.216Z,19.73
2022-07-31T04:29:31.058Z,19.71
2022-07-31T04:34:34.109Z,19.73
2022-07-31T04:39:37.059Z,19.74
2022-07-31T04:44:40.450Z,19.79
2022-07-31T04:49:43.486Z,19.85
2022-07-31T04:54:49.521Z,19.89
2022-07-31T04:59:58.208Z,19.94
2022-07-31T05:05:04.767Z,19.98
2022-07-31T05:10:08.387Z,20.04
2022-07-31T05:15:11.453Z,20.05
2022-07-31T05:20:14.303Z,19.98
2022-07-31T05:25:17.556Z,19.97
2022-07-31T05:30:30.552Z,20.01
2022-07-31T05:35:33.966Z,20.10
2022-07-31T05:40:36.792Z,20.17
2022-07-31T05:45:39.920Z,20.19
2022-07-31T05:50:45.570Z,20.19
2022-07-31T05:55:50.464Z,20.17
2022-07-31T06:00:53.469Z,20.12
2022-07-31T06:05:56.939Z,20.09
2022-07-31T06:11:00.061Z,20.13
2022-07-31T06:16:03.571Z,20.17
2022-07-31T06:21:06.383Z,20.18
2022-07-31T06:26:09.424Z,20.17
2022-07-31T06:31:19.821Z,20.19
2022-07-31T06:36:22.852Z,20.22
2022-07-31T06:41:44.561Z,20.20
2022-07-31T06:46:49.602Z,20.19
2022-07-31T06:51:53.389Z,20.18
2022-07-31T06:56:56.443Z,20.13
2022-07-31T07:01:59.273Z,20.01
2022-07-31T07:07:02.334Z,19.93
2022-07-31T07:12:06.408Z,19.91
2022-07-31T07:17:09.603Z,19.89
2022-07-31T07:22:12.510Z,19.92
2022-07-31T07:27:15.528Z,20.01
2022-07-31T07:32:18.391Z,20.05
2022-07-31T07:37:21.451Z,20.19
2022-07-31T07:42:24.278Z,20.34
2022-07-31T07:47:27.368Z,20.49
2022-07-31T07:52:50.312Z,20.55
2022-07-31T07:57:53.850Z,20.54
2022-07-31T08:03:46.951Z,20.54
2022-07-31T08:08:22.856Z,20.55
2022-07-31T08:13:26.871Z,20.52
2022-07-31T08:18:31.923Z,20.38
2022-07-31T08:23:34.924Z,20.34
2022-07-31T08:28:37.758Z,20.46
2022-07-31T08:33:40.842Z,20.53
2022-07-31T08:38:43.905Z,20.57
2022-07-31T08:44:02.737Z,20.61
2022-07-31T08:49:09.963Z,20.60
2022-07-31T08:54:16.751Z,20.67
2022-07-31T08:59:20.661Z,20.69
2022-07-31T09:04:24.529Z,20.62
2022-07-31T09:09:50.824Z,20.58
2022-07-31T09:14:52.228Z,20.69
2022-07-31T09:19:55.555Z,20.74
2022-07-31T09:25:16.100Z,20.66
2022-07-31T09:30:19.120Z,20.56
2022-07-31T09:35:21.909Z,20.55
2022-07-31T09:40:37.502Z,20.59
2022-07-31T09:45:56.656Z,20.66
2022-07-31T09:51:08.397Z,20.70
2022-07-31T09:56:13.000Z,20.65
2022-07-31T10:01:17.278Z,20.61
2022-07-31T10:06:21.563Z,20.61
2022-07-31T10:11:30.343Z,20.62
2022-07-31T10:16:39.395Z,20.58
2022-07-31T10:21:50.273Z,20.49
2022-07-31T10:27:00.774Z,20.45
2022-07-31T10:32:05.509Z,20.48
2022-07-31T10:37:24.957Z,20.57
2022-07-31T10:42:51.779Z,20.59
2022-07-31T10:48:01.459Z,20.53
2022-07-31T10:53:13.743Z,20.46
2022-07-31T10:58:22.023Z,20.42
2022-07-31T11:03:25.030Z,20.45
2022-07-31T11:08:27.851Z,20.49
2022-07-31T11:13:36.886Z,20.49
2022-07-31T11:18:40.563Z,20.45
2022-07-31T11:23:56.452Z,20.41
2022-07-31T11:30:02.081Z,20.45
2022-07-31T11:34:29.082Z,20.49
2022-07-31T11:39:37.116Z,20.42
2022-07-31T11:44:41.191Z,20.30
2022-07-31T11:49:48.467Z,20.22
2022-07-31T11:55:08.186Z,20.20
2022-07-31T12:00:26.883Z,20.17
2022-07-31T12:05:37.675Z,20.07
2022-07-31T12:10:43.270Z,19.96
2022-07-31T12:16:06.289Z,19.94
2022-07-31T12:21:09.390Z,19.93
2022-07-31T12:26:21.939Z,19.88
2022-07-31T12:31:29.898Z,19.83
2022-07-31T12:36:32.904Z,19.68
2022-07-31T12:41:43.340Z,19.64
2022-07-31T12:46:49.802Z,19.69
2022-07-31T12:51:52.805Z,19.69
2022-07-31T12:56:55.608Z,19.69
2022-07-31T13:01:58.872Z,19.61
2022-07-31T13:07:02.349Z,19.48
2022-07-31T13:12:05.941Z,19.45
2022-07-31T13:17:09.023Z,19.49
2022-07-31T13:22:11.875Z,19.55
2022-07-31T13:27:15.347Z,19.56
2022-07-31T13:32:18.374Z,19.50
2022-07-31T13:37:21.267Z,19.47
2022-07-31T13:42:29.242Z,19.55
2022-07-31T13:47:51.454Z,19.63
2022-07-31T13:52:55.179Z,19.56
2022-07-31T13:57:59.724Z,19.46
2022-07-31T14:03:04.759Z,19.46
2022-07-31T14:08:32.802Z,19.44
2022-07-31T14:13:31.123Z,19.46
2022-07-31T14:18:34.149Z,19.43
2022-07-31T14:23:40.681Z,19.39
2022-07-31T14:28:44.009Z,19.30
2022-07-31T14:33:47.020Z,19.23
2022-07-31T14:38:49.929Z,19.22
2022-07-31T14:43:56.169Z,19.22
2022-07-31T14:49:00.256Z,19.20
2022-07-31T14:54:06.495Z,19.16
2022-07-31T14:59:09.756Z,19.09
2022-07-31T15:04:12.838Z,19.04
2022-07-31T15:09:19.564Z,19.04
2022-07-31T15:14:23.500Z,19.06
2022-07-31T15:19:26.724Z,19.09
2022-07-31T15:24:29.770Z,19.11
2022-07-31T15:30:04.838Z,19.08
2022-07-31T15:34:55.799Z,19.02
2022-07-31T15:40:01.479Z,18.99
2022-07-31T15:45:06.081Z,19.00
2022-07-31T15:50:11.874Z,18.99
2022-07-31T15:55:15.430Z,18.95
2022-07-31T16:00:19.214Z,18.89
2022-07-31T16:05:36.308Z,18.85
2022-07-31T16:10:41.884Z,18.85
2022-07-31T16:15:44.896Z,18.85
2022-07-31T16:20:48.097Z,18.78
2022-07-31T16:25:54.717Z,18.70
2022-07-31T16:30:57.846Z,18.66
2022-07-31T16:36:00.681Z,18.69
2022-07-31T16:41:06.729Z,18.69
2022-07-31T16:46:10.236Z,18.64
2022-07-31T16:51:13.279Z,18.56
2022-07-31T16:56:17.304Z,18.53
2022-07-31T17:01:54.204Z,18.54
2022-07-31T17:06:43.779Z,18.54
2022-07-31T17:11:51.407Z,18.53
2022-07-31T17:16:56.656Z,18.44
2022-07-31T17:22:00.054Z,18.36
2022-07-31T17:27:05.962Z,18.34
2022-07-31T17:32:11.309Z,18.37
2022-07-31T17:37:17.004Z,18.39
2022-07-31T17:42:23.548Z,18.29
2022-07-31T17:47:26.815Z,18.12
2022-07-31T17:52:29.792Z,18.09
2022-07-31T17:57:34.146Z,18.11
2022-07-31T18:02:37.282Z,18.09
2022-07-31T18:07:40.253Z,18.03
2022-07-31T18:12:56.889Z,17.92
2022-07-31T18:18:01.132Z,17.92
2022-07-31T18:23:10.122Z,17.89
2022-07-31T18:28:13.380Z,17.86
2022-07-31T18:33:17.647Z,17.82
2022-07-31T18:38:20.775Z,17.80
2022-07-31T18:43:23.652Z,17.77
2022-07-31T18:48:26.454Z,17.71
2022-07-31T18:53:29.472Z,17.70
2022-07-31T18:58:32.522Z,17.68
2022-07-31T19:03:38.115Z,17.69
2022-07-31T19:08:41.082Z,17.67
2022-07-31T19:13:44.199Z,17.65
2022-07-31T19:18:50.244Z,17.61
2022-07-31T19:23:53.506Z,17.61
2022-07-31T19:28:56.971Z,17.67
2022-07-31T19:34:00.329Z,17.67
2022-07-31T19:39:04.051Z,17.58
2022-07-31T19:44:08.361Z,17.47
2022-07-31T19:49:11.424Z,17.42
2022-07-31T19:54:14.675Z,17.43
2022-07-31T19:59:17.555Z,17.38
2022-07-31T20:04:23.286Z,17.28
2022-07-31T20:09:26.347Z,17.29
2022-07-31T20:14:29.392Z,17.36
2022-07-31T20:19:32.424Z,17.36
2022-07-31T20:24:35.523Z,17.32
2022-07-31T20:29:38.545Z,17.27
2022-07-31T20:34:41.757Z,17.22
2022-07-31T20:39:44.795Z,17.20
2022-07-31T20:44:47.856Z,17.21
2022-07-31T20:49:50.872Z,17.20
2022-07-31T20:54:53.887Z,17.16
2022-07-31T20:59:56.919Z,17.13
2022-07-31T21:05:00.878Z,17.06
2022-07-31T21:10:05.648Z,17.00
2022-07-31T21:15:40.871Z,16.98
2022-07-31T21:20:52.113Z,16.96
2022-07-31T21:25:59.005Z,16.95
2022-07-31T21:31:02.329Z,16.98
2022-07-31T21:36:09.507Z,16.93
2022-07-31T21:41:13.015Z,16.85
2022-07-31T21:46:21.057Z,16.69
2022-07-31T21:51:26.405Z,16.66
2022-07-31T21:56:29.482Z,16.64
2022-07-31T22:01:32.649Z,16.58
2022-07-31T22:06:54.859Z,16.55
2022-07-31T22:12:01.738Z,16.47
2022-07-31T22:17:09.017Z,16.44
2022-07-31T22:22:16.916Z,16.45
2022-07-31T22:27:39.608Z,16.48
2022-07-31T22:32:43.428Z,16.41
2022-07-31T22:37:49.898Z,16.37
2022-07-31T22:42:57.667Z,16.37
2022-07-31T22:48:02.019Z,16.31
2022-07-31T22:53:04.973Z,16.31
2022-07-31T22:58:11.472Z,16.32
2022-07-31T23:03:14.500Z,16.34
2022-07-31T23:08:17.483Z,16.35
2022-07-31T23:13:20.875Z,16.39
2022-07-31T23:18:23.938Z,16.40
2022-07-31T23:23:26.933Z,16.37
2022-07-31T23:28:29.987Z,16.38
2022-07-31T23:33:33.143Z,16.50
2022-07-31T23:38:36.520Z,16.55
2022-07-31T23:43:40.285Z,16.48
2022-07-31T23:48:43.360Z,16.47
2022-07-31T23:53:46.341Z,16.48
2022-07-31T23:58:49.330Z,16.46
